createdAt,value
2018-01-13T00:02:10.763Z,4.22
2018-01-13T00:04:38.344Z,4.13
2018-01-13T00:07:06.109Z,4.16
2018-01-13T00:09:33.920Z,4.21
2018-01-13T00:12:01.533Z,4.40
2018-01-13T00:14:29.102Z,4.30
2018-01-13T00:16:56.848Z,4.16
2018-01-13T00:19:24.423Z,4.10
2018-01-13T00:21:51.972Z,4.00
2018-01-13T00:24:19.490Z,4.01
2018-01-13T00:26:47.065Z,4.00
2018-01-13T00:29:14.665Z,4.01
2018-01-13T00:31:42.228Z,4.07
2018-01-13T00:34:09.784Z,4.26
2018-01-13T00:36:37.337Z,4.10
2018-01-13T00:39:04.990Z,4.16
2018-01-13T00:41:32.551Z,4.06
2018-01-13T00:44:00.123Z,4.05
2018-01-13T00:46:27.733Z,3.93
2018-01-13T00:48:55.396Z,4.06
2018-01-13T00:51:22.923Z,4.18
2018-01-13T00:53:50.644Z,4.07
2018-01-13T00:56:18.221Z,4.21
2018-01-13T00:58:45.798Z,4.10
2018-01-13T01:01:13.364Z,4.15
2018-01-13T01:03:40.892Z,4.11
2018-01-13T01:06:08.502Z,4.21
2018-01-13T01:08:36.028Z,3.94
2018-01-13T01:11:03.560Z,3.96
2018-01-13T01:13:31.173Z,4.09
2018-01-13T01:15:58.742Z,4.11
2018-01-13T01:18:26.352Z,3.90
2018-01-13T01:20:53.908Z,4.18
2018-01-13T01:23:21.726Z,4.25
2018-01-13T01:25:49.313Z,4.10
2018-01-13T01:28:16.883Z,4.03
2018-01-13T01:30:44.453Z,4.26
2018-01-13T01:33:12.033Z,4.10
2018-01-13T01:35:39.579Z,4.07
2018-01-13T01:38:07.512Z,4.16
2018-01-13T01:40:35.073Z,3.84
2018-01-13T01:43:02.709Z,3.80
2018-01-13T01:45:30.292Z,3.89
2018-01-13T01:47:57.824Z,3.97
2018-01-13T01:50:25.533Z,3.86
2018-01-13T01:52:53.062Z,4.02
2018-01-13T01:55:20.669Z,3.95
2018-01-13T01:57:48.198Z,4.20
2018-01-13T02:00:15.746Z,4.17
2018-01-13T02:02:43.401Z,4.00
2018-01-13T02:05:11.076Z,4.02
2018-01-13T02:07:38.642Z,4.04
2018-01-13T02:10:06.195Z,4.08
2018-01-13T02:12:33.739Z,4.22
2018-01-13T02:15:01.288Z,4.20
2018-01-13T02:17:28.885Z,4.04
2018-01-13T02:19:56.454Z,4.23
2018-01-13T02:22:24.076Z,4.20
2018-01-13T02:24:51.599Z,4.07
2018-01-13T02:27:19.161Z,4.06
2018-01-13T02:29:46.752Z,4.11
2018-01-13T02:32:14.295Z,3.75
2018-01-13T02:34:41.862Z,4.10
2018-01-13T02:37:09.412Z,4.14
2018-01-13T02:39:36.936Z,3.95
2018-01-13T02:42:04.533Z,3.91
2018-01-13T02:44:32.097Z,3.94
2018-01-13T02:46:59.656Z,4.00
2018-01-13T02:49:27.199Z,3.95
2018-01-13T02:51:54.776Z,3.91
2018-01-13T02:54:22.355Z,4.07
2018-01-13T02:56:49.882Z,4.02
2018-01-13T02:59:17.394Z,3.82
2018-01-13T03:01:45.008Z,3.79
2018-01-13T03:04:12.535Z,3.85
2018-01-13T03:06:40.095Z,3.91
2018-01-13T03:09:07.704Z,3.81
2018-01-13T03:11:35.450Z,3.83
2018-01-13T03:14:03.118Z,4.01
2018-01-13T03:16:30.700Z,3.91
2018-01-13T03:18:58.266Z,4.01
2018-01-13T03:21:25.862Z,3.98
2018-01-13T03:23:53.476Z,4.07
2018-01-13T03:26:21.028Z,3.99
2018-01-13T03:28:48.556Z,3.85
2018-01-13T03:31:16.139Z,3.93
2018-01-13T03:33:43.705Z,3.90
2018-01-13T03:36:11.320Z,3.99
2018-01-13T03:38:38.929Z,3.95
2018-01-13T03:41:06.490Z,4.03
2018-01-13T03:43:34.082Z,4.07
2018-01-13T03:46:01.882Z,3.88
2018-01-13T03:48:29.442Z,3.96
2018-01-13T03:50:56.993Z,4.04
2018-01-13T03:53:24.595Z,3.87
2018-01-13T03:55:52.161Z,4.06
2018-01-13T03:58:19.806Z,3.97
2018-01-13T04:00:47.332Z,4.14
2018-01-13T04:03:14.864Z,4.04
2018-01-13T04:05:42.440Z,4.16
2018-01-13T04:08:10.030Z,4.11
2018-01-13T04:10:37.592Z,3.88
2018-01-13T04:13:05.198Z,4.09
2018-01-13T04:15:32.789Z,4.03
2018-01-13T04:18:00.352Z,4.19
2018-01-13T04:20:27.922Z,4.11
2018-01-13T04:22:55.489Z,4.05
2018-01-13T04:25:23.075Z,4.01
2018-01-13T04:27:50.642Z,3.98
2018-01-13T04:30:18.206Z,4.04
2018-01-13T04:32:45.801Z,4.09
2018-01-13T04:35:13.366Z,3.97
2018-01-13T04:37:40.924Z,4.08
2018-01-13T04:40:08.536Z,3.90
2018-01-13T04:42:36.098Z,4.04
2018-01-13T04:45:03.640Z,4.14
2018-01-13T04:47:31.228Z,4.12
2018-01-13T04:49:58.783Z,4.02
2018-01-13T04:52:26.312Z,4.13
2018-01-13T04:54:53.917Z,4.13
2018-01-13T04:57:21.468Z,4.27
2018-01-13T04:59:49.032Z,4.17
2018-01-13T05:02:16.745Z,4.02
2018-01-13T05:04:44.276Z,4.11
2018-01-13T05:07:11.884Z,3.93
2018-01-13T05:09:39.411Z,3.91
2018-01-13T05:12:06.980Z,3.97
2018-01-13T05:14:34.566Z,4.16
2018-01-13T05:17:02.185Z,3.91
2018-01-13T05:19:29.777Z,4.07
2018-01-13T05:21:57.307Z,4.06
2018-01-13T05:24:24.922Z,4.20
2018-01-13T05:26:52.490Z,4.15
2018-01-13T05:29:20.025Z,4.18
2018-01-13T05:31:47.627Z,4.00
2018-01-13T05:34:15.189Z,3.88
2018-01-13T05:36:42.744Z,4.14
2018-01-13T05:39:10.296Z,4.16
2018-01-13T05:41:37.910Z,4.03
2018-01-13T05:44:05.493Z,3.98
2018-01-13T05:46:33.077Z,3.97
2018-01-13T05:49:00.607Z,4.17
2018-01-13T05:51:28.147Z,4.19
2018-01-13T05:53:55.668Z,4.07
2018-01-13T05:56:23.246Z,4.04
2018-01-13T05:58:50.758Z,3.95
2018-01-13T06:01:18.341Z,4.02
2018-01-13T06:03:45.920Z,4.00
2018-01-13T06:06:13.452Z,3.91
2018-01-13T06:08:41.011Z,4.03
2018-01-13T06:11:08.594Z,4.22
2018-01-13T06:13:36.462Z,3.92
2018-01-13T06:16:04.206Z,3.97
2018-01-13T06:18:31.774Z,3.94
2018-01-13T06:20:59.365Z,3.89
2018-01-13T06:23:27.165Z,4.00
2018-01-13T06:25:54.715Z,3.91
2018-01-13T06:28:22.272Z,4.09
2018-01-13T06:30:49.860Z,3.84
2018-01-13T06:33:17.625Z,4.01
2018-01-13T06:35:45.209Z,4.00
2018-01-13T06:38:12.769Z,4.09
2018-01-13T06:40:40.287Z,4.11
2018-01-13T06:43:07.831Z,4.00
2018-01-13T06:45:35.470Z,4.14
2018-01-13T06:48:03.065Z,4.15
2018-01-13T06:50:30.634Z,4.02
2018-01-13T06:52:58.217Z,4.09
2018-01-13T06:55:25.819Z,3.98
2018-01-13T06:57:53.386Z,3.90
2018-01-13T07:00:20.911Z,4.04
2018-01-13T07:02:48.525Z,3.96
2018-01-13T07:05:16.080Z,4.13
2018-01-13T07:07:43.646Z,3.88
2018-01-13T07:10:11.204Z,3.97
2018-01-13T07:12:38.829Z,4.03
2018-01-13T07:15:06.423Z,4.04
2018-01-13T07:17:33.995Z,3.93
2018-01-13T07:20:01.543Z,3.96
2018-01-13T07:22:29.063Z,4.08
2018-01-13T07:24:56.670Z,4.00
2018-01-13T07:27:24.208Z,4.02
2018-01-13T07:29:51.742Z,3.97
2018-01-13T07:32:19.256Z,3.98
2018-01-13T07:34:46.837Z,3.90
2018-01-13T07:37:14.402Z,4.05
2018-01-13T07:39:42.005Z,4.01
2018-01-13T07:42:09.565Z,3.96
2018-01-13T07:44:37.189Z,3.88
2018-01-13T07:47:04.756Z,3.76
2018-01-13T07:49:32.287Z,3.81
2018-01-13T07:51:59.878Z,3.87
2018-01-13T07:54:27.819Z,3.86
2018-01-13T07:56:55.393Z,4.02
2018-01-13T07:59:22.992Z,3.89
2018-01-13T08:01:50.575Z,4.00
2018-01-13T08:04:18.378Z,3.91
2018-01-13T08:06:45.957Z,3.99
2018-01-13T08:09:13.561Z,4.01
2018-01-13T08:11:41.295Z,3.98
2018-01-13T08:14:08.847Z,3.97
2018-01-13T08:16:36.405Z,3.95
2018-01-13T08:19:03.955Z,4.05
2018-01-13T08:21:31.499Z,3.91
2018-01-13T08:23:59.110Z,4.06
2018-01-13T08:26:26.676Z,3.93
2018-01-13T08:28:54.241Z,3.96
2018-01-13T08:31:21.778Z,4.08
2018-01-13T08:33:49.390Z,4.07
2018-01-13T08:36:16.921Z,4.05
2018-01-13T08:38:44.442Z,4.00
2018-01-13T08:41:12.071Z,4.04
2018-01-13T08:43:39.854Z,4.18
2018-01-13T08:46:07.844Z,4.19
2018-01-13T08:48:35.402Z,4.10
2018-01-13T08:51:02.965Z,3.87
2018-01-13T08:53:30.553Z,4.10
2018-01-13T08:55:58.082Z,4.20
2018-01-13T08:58:25.652Z,4.27
2018-01-13T09:00:53.273Z,4.09
2018-01-13T09:03:20.839Z,4.24
2018-01-13T09:05:48.407Z,4.44
2018-01-13T09:08:15.977Z,4.21
2018-01-13T09:10:43.519Z,4.29
2018-01-13T09:13:11.044Z,4.35
2018-01-13T09:15:38.595Z,4.46
2018-01-13T09:18:06.146Z,4.23
2018-01-13T09:20:33.742Z,4.39
2018-01-13T09:23:01.306Z,4.41
2018-01-13T09:25:28.908Z,4.31
2018-01-13T09:27:56.436Z,4.38
2018-01-13T09:30:24.022Z,4.12
2018-01-13T09:32:51.597Z,4.35
2018-01-13T09:35:19.120Z,4.54
2018-01-13T09:37:46.692Z,4.65
2018-01-13T09:40:14.223Z,4.41
2018-01-13T09:42:41.906Z,4.62
2018-01-13T09:45:09.460Z,4.69
2018-01-13T09:47:37.033Z,4.80
2018-01-13T09:50:04.621Z,4.74
2018-01-13T09:52:32.144Z,4.53
2018-01-13T09:54:59.745Z,4.89
2018-01-13T09:57:27.263Z,4.95
2018-01-13T09:59:54.784Z,4.91
2018-01-13T10:02:22.361Z,4.88
2018-01-13T10:04:49.954Z,4.81
2018-01-13T10:07:17.538Z,5.20
2018-01-13T10:09:45.054Z,4.77
2018-01-13T10:12:12.677Z,5.23
2018-01-13T10:14:40.330Z,5.05
2018-01-13T10:17:07.856Z,5.25
2018-01-13T10:19:35.386Z,5.12
2018-01-13T10:22:02.951Z,5.35
2018-01-13T10:24:30.505Z,5.27
2018-01-13T10:26:58.107Z,5.31
2018-01-13T10:29:25.657Z,5.75
2018-01-13T10:31:53.185Z,5.55
2018-01-13T10:34:20.756Z,5.46
2018-01-13T10:36:48.306Z,5.39
2018-01-13T10:39:16.884Z,5.09
2018-01-13T10:41:44.448Z,5.30
2018-01-13T10:44:11.962Z,5.16
2018-01-13T10:46:39.849Z,5.65
2018-01-13T10:49:07.409Z,5.59
2018-01-13T10:51:34.961Z,5.63
2018-01-13T10:54:02.632Z,5.48
2018-01-13T10:56:30.177Z,5.53
2018-01-13T10:58:57.749Z,5.45
2018-01-13T11:01:25.334Z,5.50
2018-01-13T11:03:52.945Z,5.66
2018-01-13T11:06:20.498Z,6.06
2018-01-13T11:08:48.109Z,5.67
2018-01-13T11:11:15.636Z,5.92
2018-01-13T11:13:43.175Z,5.87
2018-01-13T11:16:10.817Z,5.91
2018-01-13T11:18:38.398Z,5.84
2018-01-13T11:21:05.981Z,5.80
2018-01-13T11:23:33.510Z,5.61
2018-01-13T11:26:01.043Z,5.89
2018-01-13T11:28:28.783Z,5.65
2018-01-13T11:30:56.506Z,5.53
2018-01-13T11:33:24.135Z,5.85
2018-01-13T11:35:51.657Z,5.58
2018-01-13T11:38:19.257Z,5.93
2018-01-13T11:40:46.818Z,5.88
2018-01-13T11:43:14.396Z,5.95
2018-01-13T11:45:41.978Z,5.76
2018-01-13T11:48:09.532Z,5.85
2018-01-13T11:50:37.239Z,5.77
2018-01-13T11:53:04.797Z,6.02
2018-01-13T11:55:32.403Z,5.82
2018-01-13T11:57:59.916Z,5.97
2018-01-13T12:00:27.460Z,5.97
2018-01-13T12:02:55.038Z,5.83
2018-01-13T12:05:22.622Z,5.94
2018-01-13T12:07:50.201Z,5.74
2018-01-13T12:10:17.822Z,5.84
2018-01-13T12:12:45.411Z,6.07
2018-01-13T12:15:13.184Z,6.16
2018-01-13T12:17:40.764Z,5.88
2018-01-13T12:20:08.287Z,6.12
2018-01-13T12:22:35.856Z,6.52
2018-01-13T12:25:03.480Z,6.44
2018-01-13T12:27:31.031Z,6.14
2018-01-13T12:29:58.576Z,6.00
2018-01-13T12:32:26.402Z,6.07
2018-01-13T12:34:53.954Z,6.32
2018-01-13T12:37:21.471Z,6.14
2018-01-13T12:39:49.008Z,6.10
2018-01-13T12:42:16.616Z,6.52
2018-01-13T12:44:44.171Z,6.19
2018-01-13T12:47:11.682Z,6.07
2018-01-13T12:49:39.211Z,5.99
2018-01-13T12:52:06.781Z,6.20
2018-01-13T12:54:34.337Z,6.01
2018-01-13T12:57:02.326Z,5.84
2018-01-13T12:59:30.011Z,5.93
2018-01-13T13:01:57.527Z,6.19
2018-01-13T13:04:26.116Z,5.96
2018-01-13T13:06:53.632Z,5.95
2018-01-13T13:09:21.168Z,6.27
2018-01-13T13:11:48.937Z,6.19
2018-01-13T13:14:16.604Z,6.49
2018-01-13T13:16:44.167Z,6.45
2018-01-13T13:19:11.831Z,6.41
2018-01-13T13:21:39.332Z,6.36
2018-01-13T13:24:06.896Z,6.32
2018-01-13T13:26:34.469Z,6.25
2018-01-13T13:29:01.987Z,6.31
2018-01-13T13:31:29.545Z,6.11
2018-01-13T13:33:57.094Z,6.12
2018-01-13T13:36:24.608Z,6.25
2018-01-13T13:38:52.544Z,6.48
2018-01-13T13:41:20.079Z,6.12
2018-01-13T13:43:47.634Z,6.08
2018-01-13T13:46:15.328Z,6.47
2018-01-13T13:48:42.876Z,6.40
2018-01-13T13:51:10.828Z,6.25
2018-01-13T13:53:38.371Z,6.10
2018-01-13T13:56:05.887Z,6.09
2018-01-13T13:58:33.598Z,6.28
2018-01-13T14:01:22.150Z,6.21
2018-01-13T14:03:28.944Z,6.41
2018-01-13T14:05:56.634Z,6.23
2018-01-13T14:08:24.266Z,6.15
2018-01-13T14:10:51.821Z,6.25
2018-01-13T14:13:19.385Z,6.17
2018-01-13T14:15:46.923Z,6.32
2018-01-13T14:18:14.465Z,6.19
2018-01-13T14:20:42.074Z,6.06
2018-01-13T14:23:09.600Z,5.95
2018-01-13T14:25:37.144Z,5.97
2018-01-13T14:28:04.717Z,5.96
2018-01-13T14:30:32.469Z,5.96
2018-01-13T14:33:00.023Z,5.89
2018-01-13T14:35:27.610Z,5.85
2018-01-13T14:37:55.131Z,5.83
2018-01-13T14:40:22.676Z,5.63
2018-01-13T14:42:50.186Z,5.84
2018-01-13T14:45:17.739Z,5.75
2018-01-13T14:47:45.372Z,5.76
2018-01-13T14:50:12.945Z,5.80
2018-01-13T14:52:40.458Z,5.89
2018-01-13T14:55:07.999Z,5.73
2018-01-13T14:57:35.516Z,5.70
2018-01-13T15:00:03.345Z,5.82
2018-01-13T15:02:30.915Z,5.81
2018-01-13T15:04:58.458Z,5.77
2018-01-13T15:07:25.986Z,5.56
2018-01-13T15:09:53.544Z,5.65
2018-01-13T15:12:21.211Z,5.78
2018-01-13T15:14:48.752Z,5.76
2018-01-13T15:17:16.290Z,5.58
2018-01-13T15:19:43.831Z,5.78
2018-01-13T15:22:11.446Z,5.72
2018-01-13T15:24:38.954Z,5.69
2018-01-13T15:27:06.556Z,5.76
2018-01-13T15:29:34.076Z,5.54
2018-01-13T15:32:01.649Z,5.51
2018-01-13T15:34:29.235Z,5.65
2018-01-13T15:36:56.790Z,5.47
2018-01-13T15:39:24.321Z,5.48
2018-01-13T15:41:51.917Z,5.54
2018-01-13T15:44:19.440Z,5.49
2018-01-13T15:46:46.993Z,5.46
2018-01-13T15:49:14.551Z,5.48
2018-01-13T15:51:42.270Z,5.48
2018-01-13T15:54:09.828Z,5.40
2018-01-13T15:56:37.454Z,5.29
2018-01-13T15:59:05.006Z,5.39
2018-01-13T16:01:32.557Z,5.52
2018-01-13T16:04:00.181Z,5.51
2018-01-13T16:06:27.868Z,5.34
2018-01-13T16:08:55.404Z,5.19
2018-01-13T16:11:23.262Z,5.40
2018-01-13T16:13:50.772Z,5.33
2018-01-13T16:16:18.346Z,5.38
2018-01-13T16:18:45.925Z,5.22
2018-01-13T16:21:13.452Z,5.11
2018-01-13T16:23:41.043Z,5.32
2018-01-13T16:26:08.596Z,5.10
2018-01-13T16:28:36.149Z,5.05
2018-01-13T16:31:03.732Z,5.16
2018-01-13T16:33:31.247Z,5.11
2018-01-13T16:35:58.812Z,5.27
2018-01-13T16:38:26.355Z,5.07
2018-01-13T16:40:54.025Z,5.00
2018-01-13T16:43:21.573Z,4.95
2018-01-13T16:45:49.153Z,4.93
2018-01-13T16:48:16.672Z,5.05
2018-01-13T16:50:44.266Z,4.93
2018-01-13T16:53:11.784Z,5.05
2018-01-13T16:55:39.314Z,5.03
2018-01-13T16:58:06.832Z,4.98
2018-01-13T17:00:34.410Z,4.93
2018-01-13T17:03:01.961Z,4.90
2018-01-13T17:05:29.541Z,4.99
2018-01-13T17:07:58.106Z,4.74
2018-01-13T17:10:25.677Z,4.86
2018-01-13T17:12:53.223Z,4.81
2018-01-13T17:15:20.794Z,4.74
2018-01-13T17:17:48.320Z,4.81
2018-01-13T17:20:16.333Z,4.78
2018-01-13T17:22:43.897Z,4.81
2018-01-13T17:25:11.448Z,4.79
2018-01-13T17:27:39.049Z,4.78
2018-01-13T17:30:06.725Z,4.68
2018-01-13T17:32:34.285Z,4.55
2018-01-13T17:35:02.234Z,4.75
2018-01-13T17:37:29.788Z,4.68
2018-01-13T17:39:57.354Z,4.80
2018-01-13T17:42:24.985Z,4.59
2018-01-13T17:44:52.503Z,4.61
2018-01-13T17:47:20.097Z,4.48
2018-01-13T17:49:47.663Z,4.66
2018-01-13T17:52:15.197Z,4.48
2018-01-13T17:54:42.876Z,4.49
2018-01-13T17:57:10.433Z,4.35
2018-01-13T17:59:37.970Z,4.31
2018-01-13T18:02:05.491Z,4.46
2018-01-13T18:04:33.007Z,4.58
2018-01-13T18:07:00.884Z,4.56
2018-01-13T18:09:28.391Z,4.25
2018-01-13T18:11:55.970Z,4.38
2018-01-13T18:14:23.519Z,4.40
2018-01-13T18:16:51.050Z,4.41
2018-01-13T18:19:18.583Z,4.30
2018-01-13T18:21:46.174Z,4.40
2018-01-13T18:24:13.724Z,4.35
2018-01-13T18:26:41.264Z,4.32
2018-01-13T18:29:08.836Z,4.27
2018-01-13T18:31:36.469Z,4.15
2018-01-13T18:34:04.385Z,4.20
2018-01-13T18:36:31.929Z,4.14
2018-01-13T18:38:59.445Z,4.10
2018-01-13T18:41:26.988Z,4.06
2018-01-13T18:43:54.499Z,4.01
2018-01-13T18:46:22.323Z,4.01
2018-01-13T18:48:49.835Z,3.91
2018-01-13T18:51:17.376Z,4.00
2018-01-13T18:53:46.206Z,3.84
2018-01-13T18:56:13.845Z,3.89
2018-01-13T18:58:41.396Z,3.85
2018-01-13T19:01:08.958Z,3.78
2018-01-13T19:03:36.562Z,3.73
2018-01-13T19:06:04.084Z,3.73
2018-01-13T19:08:31.672Z,3.80
2018-01-13T19:10:59.182Z,3.78
2018-01-13T19:13:26.825Z,3.63
2018-01-13T19:15:54.414Z,3.70
2018-01-13T19:18:22.007Z,3.81
2018-01-13T19:20:49.670Z,3.66
2018-01-13T19:23:17.273Z,3.71
2018-01-13T19:25:44.854Z,3.60
2018-01-13T19:28:12.413Z,3.75
2018-01-13T19:30:39.965Z,3.72
2018-01-13T19:33:07.545Z,3.54
2018-01-13T19:35:35.137Z,3.58
2018-01-13T19:38:02.712Z,3.69
2018-01-13T19:40:30.288Z,3.62
2018-01-13T19:42:57.853Z,3.46
2018-01-13T19:45:25.363Z,3.60
2018-01-13T19:47:52.932Z,3.71
2018-01-13T19:50:20.497Z,3.53
2018-01-13T19:52:48.125Z,3.72
2018-01-13T19:55:15.714Z,3.67
2018-01-13T19:57:43.359Z,3.64
2018-01-13T20:00:10.892Z,3.60
2018-01-13T20:02:38.407Z,3.38
2018-01-13T20:05:06.237Z,3.44
2018-01-13T20:07:33.931Z,3.55
2018-01-13T20:10:01.521Z,3.45
2018-01-13T20:12:29.124Z,3.59
2018-01-13T20:14:56.633Z,3.48
2018-01-13T20:17:24.140Z,3.58
2018-01-13T20:19:51.698Z,3.45
2018-01-13T20:22:19.220Z,3.48
2018-01-13T20:24:46.760Z,3.42
2018-01-13T20:27:14.360Z,3.52
2018-01-13T20:29:41.927Z,3.49
2018-01-13T20:32:09.598Z,3.34
2018-01-13T20:34:37.195Z,3.50
2018-01-13T20:37:04.848Z,3.41
2018-01-13T20:39:32.428Z,3.40
2018-01-13T20:42:00.000Z,3.45
2018-01-13T20:44:27.589Z,3.39
2018-01-13T20:46:55.241Z,3.33
2018-01-13T20:49:22.811Z,3.33
2018-01-13T20:51:50.438Z,3.40
2018-01-13T20:54:17.999Z,3.43
2018-01-13T20:56:45.584Z,3.28
2018-01-13T20:59:13.133Z,3.28
2018-01-13T21:01:40.719Z,3.26
2018-01-13T21:04:08.298Z,3.12
2018-01-13T21:06:35.918Z,3.25
2018-01-13T21:09:03.560Z,3.19
2018-01-13T21:11:31.178Z,3.21
2018-01-13T21:13:58.853Z,3.06
2018-01-13T21:16:26.634Z,3.14
2018-01-13T21:18:54.275Z,3.19
2018-01-13T21:21:21.796Z,3.27
2018-01-13T21:23:49.353Z,3.25
2018-01-13T21:26:17.017Z,3.21
2018-01-13T21:28:44.599Z,3.25
2018-01-13T21:31:12.175Z,3.24
2018-01-13T21:33:39.842Z,3.16
2018-01-13T21:36:07.520Z,3.26
2018-01-13T21:38:35.195Z,3.10
2018-01-13T21:41:02.804Z,3.20
2018-01-13T21:43:30.375Z,3.23
2018-01-13T21:45:57.945Z,3.18
2018-01-13T21:48:25.568Z,3.16
2018-01-13T21:50:53.262Z,3.17
2018-01-13T21:53:20.801Z,3.13
2018-01-13T21:55:48.379Z,2.98
2018-01-13T21:58:16.195Z,3.09
2018-01-13T22:00:43.763Z,2.97
2018-01-13T22:03:11.287Z,2.98
2018-01-13T22:05:38.856Z,3.07
2018-01-13T22:08:06.459Z,3.04
2018-01-13T22:10:34.069Z,2.99
2018-01-13T22:13:01.591Z,2.94
2018-01-13T22:15:29.115Z,3.05
2018-01-13T22:17:56.690Z,2.99
2018-01-13T22:20:24.327Z,3.00
2018-01-13T22:22:51.885Z,2.89
2018-01-13T22:25:19.433Z,3.04
2018-01-13T22:27:47.175Z,3.04
2018-01-13T22:30:14.756Z,2.87
2018-01-13T22:32:42.299Z,2.83
2018-01-13T22:35:09.896Z,2.89
2018-01-13T22:37:37.476Z,2.93
2018-01-13T22:40:05.025Z,2.92
2018-01-13T22:42:32.765Z,2.85
2018-01-13T22:45:00.344Z,2.97
2018-01-13T22:47:27.860Z,2.92
2018-01-13T22:49:55.434Z,2.86
2018-01-13T22:52:22.991Z,2.77
2018-01-13T22:54:50.786Z,2.78
2018-01-13T22:57:18.341Z,2.90
2018-01-13T22:59:45.896Z,2.76
2018-01-13T23:02:13.501Z,2.71
2018-01-13T23:04:41.174Z,2.72
2018-01-13T23:07:08.751Z,2.69
2018-01-13T23:09:36.418Z,2.74
2018-01-13T23:12:04.336Z,2.65
2018-01-13T23:14:31.869Z,2.49
2018-01-13T23:16:59.424Z,2.54
2018-01-13T23:19:27.027Z,2.61
2018-01-13T23:21:54.584Z,2.50
2018-01-13T23:24:22.094Z,2.54
2018-01-13T23:26:49.632Z,2.64
2018-01-13T23:29:17.209Z,2.54
2018-01-13T23:31:44.743Z,2.43
2018-01-13T23:34:12.289Z,2.48
2018-01-13T23:36:39.902Z,2.41
2018-01-13T23:39:07.460Z,2.48
2018-01-13T23:41:34.979Z,2.35
2018-01-13T23:44:02.550Z,2.43
2018-01-13T23:46:30.162Z,2.44
2018-01-13T23:48:57.670Z,2.28
2018-01-13T23:51:25.188Z,2.31
2018-01-13T23:53:52.897Z,2.34
2018-01-13T23:56:20.453Z,2.24
2018-01-13T23:58:48.043Z,2.32
